Elmhurst, New York
Current Conditions -  °F | °C
As of 5:54 PM on Wednesday 26 Nov 2014 (Local Time) from KLGA Reporting Station
Light Rain Light Rain  
Wind Chill: 29°   Ceiling: 1200
Heat Index: 37°   Visibility: 2mi
Dew Point: 34°   Wind: 14mph
Humidity: 87%   Direction: 360°N
Pressure: 29.79"   Gusts: 23mph
Location:  40.73°N, 73.86°W
Report Text: KLGA 262254Z 36012G20KT 2SM -RA BR BKN012 OVC018 03/01 A2979 RMK AO2 SFC VIS 3 SNE53 P0001
Loading
Personal Weather Stations






























Interactive Weather Map New forecast layout! Learn more

10-Day Weather Forecast

Advertisements
Track Severe Weather on mobile